Terminal Aerodrome Forecast
Issued by NWS Wilmington, OH

Home | Current Version | Previous Version | Text Only | Print | Product List | Glossary On
Versions: 1 2 3 4 5 6 7 8 9 10 11 12 13 14 15 16 17 18 19 20 21 22 23 24 25 26
000
FTUS41 KILN 012300
TAFILN
TAF
KILN 012320Z 0200/0224 17012KT 4SM -RA BR OVC006
      TEMPO 0200/0203 1SM RA BR OVC004
     FM020300 23010KT 3SM BR VCSH OVC006
     FM020700 27012G22KT P6SM VCSH OVC012
     FM020900 33014G26KT P6SM VCSH OVC015
      TEMPO 0210/0213 5SM -SHSN
     FM021500 32012G22KT P6SM BKN025
     FM021900 32012KT P6SM SCT025=

USA.gov is the U.S. government's official web portal to all federal, state and local government web resources and services.